Hlavní strana
METAR-TAF:

METAR-TAF

Letiště :

Key Lake, Saskatchewan, Kanada

zeměpisná šířka: 57-15N, zeměpisná délka: 105-37W, výška: 509 m

Aktuální stav počasí

Zpráva byla vytvořena před 1 hodinou a 2 minutami, v 02:00 UTC
Severoseverozápadní vítr 3 kt
Teplota 6°C
Vlhkost vzduchu 52%
Tlak 1020 hPa
Viditelnost: 14.5 km
Jasno

METAR: CYKJ 220200Z AUTO 34003KT 9SM CLR 06/M03 A3012 RMK SLP225

Čas: 21:02 (03:02 UTC)

Předpověď počasí

Zpráva byla vytvořena před 8 hodinami a 24 minutami, v 18:38 UTC
Předpověď platná od 21 v 19 UTC do 21 v 24 UTC
Severoseverozápadní vítr 8 kt
Viditelnost: 10 km
Skoro jasno ve výšce 4000 ft
Dočasný
od 21 v 19 UTC do 21 v 24 UTC
Oblačno až skoro zataženo ve výšce 4000 ft

TAF: CYKJ 211838Z 2119/2124 33008KT P6SM FEW040 TEMPO 2119/2124 BKN040 RMK FCST BASED ON AUTO OBS. NXT FCST WILL BE ISSUED AT 220945Z

Stav a předpovědi počasí z více než 4 000 letišť (zprávy METAR a TAF).

Červené a žluté tečky na mapě představují dostupné meteorologické stanice.

Když kurzor umístíte na tečku, zobrazí se název stanice.

Pak kliknutím zobrazíte stav a předpověď počasí.

Chcete-li změnit mapu, kliknutím na zelené tlačítko se znaménkem +mapu přiblížíte, kliknutím na zelené tlačítko se znaménkem – mapu oddálíte a kliknutím na zelené šipky přejdete na sousední mapy.


METAR-TAF: